createdAt,value
2022-12-01T00:01:08.317Z,3.72
2022-12-01T00:04:16.114Z,3.70
2022-12-01T00:07:24.216Z,3.70
2022-12-01T00:10:32.884Z,3.70
2022-12-01T00:13:41.164Z,3.70
2022-12-01T00:16:49.444Z,3.70
2022-12-01T00:19:57.527Z,3.70
2022-12-01T00:23:06.100Z,3.60
2022-12-01T00:26:14.785Z,3.60
2022-12-01T00:29:22.822Z,3.58
2022-12-01T00:32:32.500Z,3.50
2022-12-01T00:35:40.381Z,3.50
2022-12-01T00:38:48.590Z,3.40
2022-12-01T00:41:56.316Z,3.40
2022-12-01T00:45:07.431Z,3.30
2022-12-01T00:48:15.326Z,3.30
2022-12-01T00:51:23.431Z,3.30
2022-12-01T00:54:32.727Z,3.26
2022-12-01T00:57:40.374Z,3.20
2022-12-01T01:00:48.421Z,3.20
2022-12-01T01:03:56.254Z,3.10
2022-12-01T01:07:04.750Z,3.10
2022-12-01T01:10:15.220Z,3.02
2022-12-01T01:13:23.219Z,3.00
2022-12-01T01:16:31.915Z,3.00
2022-12-01T01:19:39.865Z,2.90
2022-12-01T01:22:47.606Z,2.90
2022-12-01T01:25:55.516Z,2.90
2022-12-01T01:29:07.617Z,2.90
2022-12-01T01:32:15.404Z,2.80
2022-12-01T01:35:23.221Z,2.80
2022-12-01T01:38:32.332Z,2.70
2022-12-01T01:41:40.229Z,2.70
2022-12-01T01:44:57.861Z,2.70
2022-12-01T01:48:06.298Z,2.60
2022-12-01T01:51:17.029Z,2.60
2022-12-01T01:54:31.624Z,2.50
2022-12-01T01:57:40.590Z,2.46
2022-12-01T02:00:49.615Z,2.40
2022-12-01T02:03:59.775Z,2.30
2022-12-01T02:07:09.465Z,2.30
2022-12-01T02:10:22.813Z,2.30
2022-12-01T02:13:43.833Z,2.20
2022-12-01T02:17:03.059Z,2.20
2022-12-01T02:20:47.131Z,2.18
2022-12-01T02:24:30.316Z,2.10
2022-12-01T02:28:04.191Z,2.10
2022-12-01T02:31:19.194Z,2.10
2022-12-01T02:34:37.102Z,2.00
2022-12-01T02:37:57.243Z,2.00
2022-12-01T02:41:16.080Z,2.00
2022-12-01T02:44:30.568Z,2.00
2022-12-01T02:47:42.508Z,2.00
2022-12-01T02:50:52.564Z,2.00
2022-12-01T02:54:03.640Z,2.00
2022-12-01T02:57:15.538Z,2.00
2022-12-01T03:00:23.885Z,2.00
2022-12-01T03:03:57.697Z,1.98
2022-12-01T03:07:20.775Z,1.92
2022-12-01T03:10:41.468Z,1.90
2022-12-01T03:14:02.644Z,1.84
2022-12-01T03:17:18.062Z,1.80
2022-12-01T03:20:35.691Z,1.70
2022-12-01T03:23:49.139Z,1.70
2022-12-01T03:27:01.323Z,1.60
2022-12-01T03:30:12.791Z,1.50
2022-12-01T03:33:30.336Z,1.48
2022-12-01T03:36:44.175Z,1.40
2022-12-01T03:40:00.234Z,1.40
2022-12-01T03:43:16.324Z,1.40
2022-12-01T03:46:34.387Z,1.40
2022-12-01T03:49:44.009Z,1.40
2022-12-01T03:53:01.295Z,1.40
2022-12-01T03:56:11.349Z,1.30
2022-12-01T03:59:23.890Z,1.20
2022-12-01T04:02:33.466Z,1.20
2022-12-01T04:05:48.624Z,1.10
2022-12-01T04:08:56.817Z,1.18
2022-12-01T04:12:22.316Z,1.20
2022-12-01T04:15:31.117Z,1.20
2022-12-01T04:18:38.742Z,1.30
2022-12-01T04:21:46.656Z,1.30
2022-12-01T04:24:55.240Z,1.38
2022-12-01T04:28:03.553Z,1.30
2022-12-01T04:31:11.307Z,1.28
2022-12-01T04:34:19.292Z,1.20
2022-12-01T04:37:27.031Z,1.10
2022-12-01T04:40:34.926Z,1.10
2022-12-01T04:43:43.296Z,1.00
2022-12-01T04:46:52.194Z,1.00
2022-12-01T04:50:00.636Z,1.00
2022-12-01T04:53:08.951Z,0.98
2022-12-01T04:56:16.853Z,0.90
2022-12-01T04:59:25.188Z,0.80
2022-12-01T05:02:33.032Z,0.80
2022-12-01T05:05:40.871Z,0.80
2022-12-01T05:08:49.149Z,0.80
2022-12-01T05:11:57.945Z,0.80
2022-12-01T05:15:06.563Z,0.80
2022-12-01T05:18:14.508Z,0.78
2022-12-01T05:21:22.301Z,0.70
2022-12-01T05:24:30.356Z,0.70
2022-12-01T05:27:38.172Z,0.66
2022-12-01T05:30:46.266Z,0.68
2022-12-01T05:33:54.168Z,0.70
2022-12-01T05:37:02.419Z,0.60
2022-12-01T05:40:13.188Z,0.60
2022-12-01T05:43:27.142Z,0.60
2022-12-01T05:46:36.872Z,0.60
2022-12-01T05:49:45.028Z,0.60
2022-12-01T05:52:52.836Z,0.60
2022-12-01T05:56:00.793Z,0.60
2022-12-01T05:59:09.192Z,0.50
2022-12-01T06:02:17.084Z,0.48
2022-12-01T06:05:25.015Z,0.40
2022-12-01T06:08:33.122Z,0.40
2022-12-01T06:11:41.378Z,0.40
2022-12-01T06:14:49.774Z,0.40
2022-12-01T06:18:00.022Z,0.40
2022-12-01T06:21:10.177Z,0.32
2022-12-01T06:24:16.229Z,0.30
2022-12-01T06:27:25.703Z,0.24
2022-12-01T06:30:33.409Z,0.20
2022-12-01T06:33:41.603Z,0.18
2022-12-01T06:36:49.189Z,0.20
2022-12-01T06:39:57.816Z,0.20
2022-12-01T06:43:07.124Z,0.16
2022-12-01T06:46:18.819Z,0.10
2022-12-01T06:49:27.033Z,0.08
2022-12-01T06:52:35.390Z,0.10
2022-12-01T06:55:43.466Z,0.10
2022-12-01T06:58:51.958Z,0.10
2022-12-01T07:02:00.759Z,0.10
2022-12-01T07:05:09.894Z,0.10
2022-12-01T07:08:17.829Z,0.16
2022-12-01T07:11:25.846Z,0.20
2022-12-01T07:14:33.667Z,0.20
2022-12-01T07:17:41.604Z,0.20
2022-12-01T07:20:50.078Z,0.26
2022-12-01T07:23:59.272Z,0.30
2022-12-01T07:27:07.088Z,0.40
2022-12-01T07:30:16.307Z,0.46
2022-12-01T07:33:23.912Z,0.50
2022-12-01T07:36:31.822Z,0.60
2022-12-01T07:39:39.701Z,0.60
2022-12-01T07:42:48.071Z,0.60
2022-12-01T07:45:56.556Z,0.68
2022-12-01T07:49:06.929Z,0.74
2022-12-01T07:52:14.758Z,0.80
2022-12-01T07:55:22.560Z,0.90
2022-12-01T07:58:31.009Z,1.00
2022-12-01T08:01:44.075Z,1.06
2022-12-01T08:04:55.091Z,1.14
2022-12-01T08:08:03.833Z,1.20
2022-12-01T08:11:17.457Z,1.30
2022-12-01T08:14:25.347Z,1.40
2022-12-01T08:17:33.106Z,1.48
2022-12-01T08:20:40.959Z,1.56
2022-12-01T08:23:50.001Z,1.70
2022-12-01T08:26:57.943Z,1.80
2022-12-01T08:30:08.984Z,1.94
2022-12-01T08:33:17.343Z,2.10
2022-12-01T08:36:26.471Z,2.28
2022-12-01T08:39:34.491Z,2.40
2022-12-01T08:42:42.892Z,2.60
2022-12-01T08:45:52.002Z,2.80
2022-12-01T08:49:00.644Z,3.00
2022-12-01T08:52:09.643Z,3.10
2022-12-01T08:55:18.049Z,3.22
2022-12-01T08:58:28.541Z,3.40
2022-12-01T09:01:51.808Z,3.52
2022-12-01T09:05:00.762Z,3.70
2022-12-01T09:08:34.944Z,3.80
2022-12-01T09:11:44.497Z,4.00
2022-12-01T09:14:53.213Z,4.20
2022-12-01T09:18:01.845Z,4.38
2022-12-01T09:21:17.855Z,4.50
2022-12-01T09:24:26.681Z,4.70
2022-12-01T09:27:34.488Z,4.82
2022-12-01T09:30:42.361Z,4.92
2022-12-01T09:33:50.405Z,5.00
2022-12-01T09:37:00.900Z,5.18
2022-12-01T09:40:15.612Z,5.30
2022-12-01T09:43:29.046Z,5.40
2022-12-01T09:46:43.656Z,5.50
2022-12-01T09:50:01.246Z,5.60
2022-12-01T09:53:16.303Z,5.70
2022-12-01T09:56:29.251Z,5.80
2022-12-01T09:59:43.718Z,5.90
2022-12-01T10:03:01.324Z,6.10
2022-12-01T10:06:32.282Z,6.20
2022-12-01T10:09:51.328Z,6.36
2022-12-01T10:13:00.904Z,6.50
2022-12-01T10:16:18.262Z,6.60
2022-12-01T10:19:35.089Z,6.70
2022-12-01T10:23:08.664Z,6.80
2022-12-01T10:26:26.564Z,6.80
2022-12-01T10:29:47.774Z,6.70
2022-12-01T10:33:01.931Z,6.62
2022-12-01T10:36:11.998Z,6.60
2022-12-01T10:39:30.509Z,6.50
2022-12-01T10:42:44.922Z,6.50
2022-12-01T10:45:53.218Z,6.44
2022-12-01T10:49:09.284Z,6.46
2022-12-01T10:52:39.707Z,6.50
2022-12-01T10:55:50.761Z,6.58
2022-12-01T10:59:17.233Z,6.50
2022-12-01T11:02:29.324Z,6.50
2022-12-01T11:05:43.626Z,6.46
2022-12-01T11:08:59.308Z,6.40
2022-12-01T11:12:14.791Z,6.46
2022-12-01T11:15:32.492Z,6.50
2022-12-01T11:18:41.952Z,6.60
2022-12-01T11:21:53.536Z,6.60
2022-12-01T11:25:19.698Z,6.64
2022-12-01T11:28:28.323Z,6.70
2022-12-01T11:31:45.084Z,6.70
2022-12-01T11:35:01.069Z,6.80
2022-12-01T11:38:29.656Z,6.80
2022-12-01T11:41:42.971Z,6.90
2022-12-01T11:44:56.590Z,6.90
2022-12-01T11:48:25.865Z,6.90
2022-12-01T11:51:37.861Z,6.90
2022-12-01T11:55:08.231Z,6.90
2022-12-01T11:58:17.555Z,6.80
2022-12-01T12:01:51.357Z,6.84
2022-12-01T12:05:40.247Z,6.90
2022-12-01T12:09:15.696Z,7.04
2022-12-01T12:12:43.527Z,7.10
2022-12-01T12:16:09.007Z,7.10
2022-12-01T12:20:00.185Z,7.12
2022-12-01T12:23:33.506Z,7.20
2022-12-01T12:26:54.981Z,7.30
2022-12-01T12:30:26.515Z,7.50
2022-12-01T12:34:14.330Z,7.50
2022-12-01T12:37:33.067Z,7.50
2022-12-01T12:40:54.897Z,7.58
2022-12-01T12:44:36.769Z,7.60
2022-12-01T12:48:07.279Z,7.66
2022-12-01T12:51:20.932Z,7.82
2022-12-01T12:54:37.641Z,7.92
2022-12-01T12:57:59.130Z,8.18
2022-12-01T13:01:17.194Z,8.36
2022-12-01T13:04:33.397Z,8.38
2022-12-01T13:07:50.762Z,8.30
2022-12-01T13:11:06.387Z,8.58
2022-12-01T13:14:26.536Z,8.70
2022-12-01T13:17:45.547Z,8.74
2022-12-01T13:20:56.765Z,8.40
2022-12-01T13:24:12.487Z,8.20
2022-12-01T13:27:25.196Z,8.22
2022-12-01T13:30:33.238Z,8.40
2022-12-01T13:33:46.471Z,8.60
2022-12-01T13:36:57.020Z,8.70
2022-12-01T13:40:24.127Z,8.82
2022-12-01T13:43:32.021Z,8.90
2022-12-01T13:47:01.024Z,8.50
2022-12-01T13:51:07.626Z,8.20
2022-12-01T13:54:34.503Z,7.86
2022-12-01T13:57:42.159Z,7.36
2022-12-01T14:00:51.037Z,7.00
2022-12-01T14:04:01.864Z,6.70
2022-12-01T14:07:28.642Z,6.50
2022-12-01T14:10:38.667Z,6.20
2022-12-01T14:13:50.904Z,5.96
2022-12-01T14:17:02.754Z,5.70
2022-12-01T14:20:23.859Z,5.50
2022-12-01T14:23:35.248Z,5.30
2022-12-01T14:26:50.372Z,5.10
2022-12-01T14:29:58.995Z,5.00
2022-12-01T14:33:54.075Z,4.90
2022-12-01T14:37:08.324Z,4.80
2022-12-01T14:40:29.990Z,4.68
2022-12-01T14:43:57.240Z,4.50
2022-12-01T14:47:16.035Z,4.40
2022-12-01T14:50:34.457Z,4.30
2022-12-01T14:53:50.023Z,4.30
2022-12-01T14:57:06.885Z,4.30
2022-12-01T15:00:23.974Z,4.30
2022-12-01T15:03:38.902Z,4.24
2022-12-01T15:06:47.272Z,4.20
2022-12-01T15:10:06.575Z,4.20
2022-12-01T15:13:30.577Z,4.18
2022-12-01T15:19:47.402Z,4.00
2022-12-01T15:34:05.051Z,4.48
2022-12-01T15:44:36.231Z,4.20
2022-12-01T15:47:55.699Z,4.20
2022-12-01T15:51:17.467Z,4.10
2022-12-01T15:54:28.414Z,4.00
2022-12-01T15:57:37.520Z,4.00
2022-12-01T16:01:00.536Z,3.90
2022-12-01T16:04:19.858Z,3.76
2022-12-01T16:08:04.922Z,3.60
2022-12-01T16:11:22.383Z,3.48
2022-12-01T16:14:35.618Z,3.40
2022-12-01T16:18:32.280Z,3.32
2022-12-01T16:21:55.901Z,3.30
2022-12-01T16:25:07.501Z,3.30
2022-12-01T16:28:37.145Z,3.30
2022-12-01T16:32:12.544Z,3.26
2022-12-01T16:35:30.508Z,3.20
2022-12-01T16:38:38.469Z,3.10
2022-12-01T16:41:48.172Z,3.00
2022-12-01T16:44:58.545Z,2.96
2022-12-01T16:48:09.421Z,2.90
2022-12-01T16:51:29.390Z,2.90
2022-12-01T16:54:38.662Z,2.82
2022-12-01T16:57:46.981Z,2.80
2022-12-01T17:00:56.016Z,2.70
2022-12-01T17:04:07.808Z,2.60
2022-12-01T17:07:17.939Z,2.60
2022-12-01T17:10:29.270Z,2.50
2022-12-01T17:14:13.004Z,2.40
2022-12-01T17:17:41.425Z,2.40
2022-12-01T17:21:06.891Z,2.40
2022-12-01T17:24:19.055Z,2.40
2022-12-01T17:27:28.338Z,2.40
2022-12-01T17:30:37.351Z,2.40
2022-12-01T17:33:45.593Z,2.40
2022-12-01T17:36:54.217Z,2.44
2022-12-01T17:40:01.946Z,2.50
2022-12-01T17:43:11.541Z,2.50
2022-12-01T17:46:19.468Z,2.50
2022-12-01T17:49:28.226Z,2.50
2022-12-01T17:52:36.505Z,2.46
2022-12-01T17:55:45.280Z,2.40
2022-12-01T17:58:54.625Z,2.30
2022-12-01T18:02:02.949Z,2.30
2022-12-01T18:05:12.412Z,2.20
2022-12-01T18:08:20.706Z,2.20
2022-12-01T18:11:29.611Z,2.20
2022-12-01T18:14:39.296Z,2.20
2022-12-01T18:17:48.210Z,2.20
2022-12-01T18:20:56.356Z,2.20
2022-12-01T18:24:09.013Z,2.22
2022-12-01T18:27:19.463Z,2.30
2022-12-01T18:30:27.226Z,2.30
2022-12-01T18:33:37.488Z,2.30
2022-12-01T18:36:45.501Z,2.30
2022-12-01T18:39:55.967Z,2.30
2022-12-01T18:43:04.082Z,2.30
2022-12-01T18:46:13.930Z,2.24
2022-12-01T18:49:22.234Z,2.26
2022-12-01T18:52:32.674Z,2.30
2022-12-01T18:55:41.920Z,2.24
2022-12-01T18:58:54.753Z,2.20
2022-12-01T19:02:02.710Z,2.20
2022-12-01T19:05:13.512Z,2.20
2022-12-01T19:08:21.686Z,2.14
2022-12-01T19:11:30.640Z,2.10
2022-12-01T19:14:38.615Z,2.10
2022-12-01T19:17:47.000Z,2.08
2022-12-01T19:20:54.794Z,2.00
2022-12-01T19:24:02.828Z,2.00
2022-12-01T19:27:11.027Z,2.00
2022-12-01T19:30:21.573Z,1.90
2022-12-01T19:33:29.739Z,1.86
2022-12-01T19:36:38.408Z,1.80
2022-12-01T19:39:46.256Z,1.80
2022-12-01T19:42:57.306Z,1.80
2022-12-01T19:46:14.638Z,1.80
2022-12-01T19:49:23.573Z,1.80
2022-12-01T19:52:31.601Z,1.80
2022-12-01T19:55:41.924Z,1.80
2022-12-01T19:58:49.771Z,1.80
2022-12-01T20:01:58.087Z,1.80
2022-12-01T20:05:07.159Z,1.72
2022-12-01T20:08:15.103Z,1.70
2022-12-01T20:11:24.254Z,1.70
2022-12-01T20:14:33.675Z,1.70
2022-12-01T20:17:42.415Z,1.70
2022-12-01T20:20:50.461Z,1.60
2022-12-01T20:24:00.981Z,1.60
2022-12-01T20:27:09.319Z,1.52
2022-12-01T20:30:18.728Z,1.50
2022-12-01T20:33:27.871Z,1.50
2022-12-01T20:36:36.225Z,1.40
2022-12-01T20:39:43.991Z,1.40
2022-12-01T20:42:51.951Z,1.40
2022-12-01T20:46:00.158Z,1.40
2022-12-01T20:49:08.536Z,1.38
2022-12-01T20:52:16.586Z,1.38
2022-12-01T20:55:24.811Z,1.32
2022-12-01T20:58:37.213Z,1.30
2022-12-01T21:01:45.762Z,1.30
2022-12-01T21:04:58.800Z,1.30
2022-12-01T21:08:10.271Z,1.32
2022-12-01T21:11:44.775Z,1.30
2022-12-01T21:15:12.560Z,1.30
2022-12-01T21:18:27.334Z,1.28
2022-12-01T21:21:39.966Z,1.20
2022-12-01T21:24:52.051Z,1.30
2022-12-01T21:28:14.706Z,1.30
2022-12-01T21:31:23.042Z,1.30
2022-12-01T21:34:35.050Z,1.30
2022-12-01T21:37:43.309Z,1.30
2022-12-01T21:40:51.710Z,1.30
2022-12-01T21:44:14.133Z,1.30
2022-12-01T21:47:24.472Z,1.30
2022-12-01T21:50:33.030Z,1.20
2022-12-01T21:53:42.875Z,1.20
2022-12-01T21:56:50.765Z,1.20
2022-12-01T22:00:26.205Z,1.10
2022-12-01T22:03:39.857Z,1.10
2022-12-01T22:06:50.988Z,1.10
2022-12-01T22:10:02.490Z,1.00
2022-12-01T22:13:17.196Z,1.00
2022-12-01T22:16:32.854Z,0.98
2022-12-01T22:19:46.781Z,0.90
2022-12-01T22:22:56.235Z,0.90
2022-12-01T22:26:13.850Z,0.80
2022-12-01T22:29:38.367Z,0.74
2022-12-01T22:33:03.930Z,0.70
2022-12-01T22:36:26.555Z,0.70
2022-12-01T22:39:35.705Z,0.70
2022-12-01T22:42:43.933Z,0.68
2022-12-01T22:46:03.517Z,0.60
2022-12-01T22:49:22.540Z,0.60
2022-12-01T22:52:32.760Z,0.60
2022-12-01T22:55:40.889Z,0.60
2022-12-01T22:58:48.917Z,0.52
2022-12-01T23:01:59.581Z,0.40
2022-12-01T23:05:25.681Z,0.40
2022-12-01T23:08:34.539Z,0.40
2022-12-01T23:11:43.521Z,0.36
2022-12-01T23:14:56.200Z,0.30
2022-12-01T23:18:16.262Z,0.30
2022-12-01T23:21:24.431Z,0.30
2022-12-01T23:24:34.159Z,0.30
2022-12-01T23:27:41.227Z,0.40
2022-12-01T23:30:53.468Z,0.40
2022-12-01T23:34:01.670Z,0.42
2022-12-01T23:37:33.179Z,0.48
2022-12-01T23:40:41.712Z,0.50
2022-12-01T23:43:50.043Z,0.50
2022-12-01T23:47:00.948Z,0.50
2022-12-01T23:50:21.291Z,0.60
2022-12-01T23:53:34.441Z,0.60
2022-12-01T23:56:42.850Z,0.70
2022-12-01T23:59:52.224Z,0.70
